createdAt,value
2016-08-09T00:00:35.398Z,55.31
2016-08-09T00:01:35.423Z,55.41
2016-08-09T00:02:36.163Z,55.31
2016-08-09T00:03:35.484Z,55.79
2016-08-09T00:04:35.514Z,55.89
2016-08-09T00:05:35.591Z,55.21
2016-08-09T00:06:35.569Z,55.02
2016-08-09T00:07:35.599Z,55.51
2016-08-09T00:08:36.339Z,55.51
2016-08-09T00:09:35.657Z,55.11
2016-08-09T00:10:35.686Z,55.11
2016-08-09T00:11:35.716Z,55.41
2016-08-09T00:12:35.754Z,55.21
2016-08-09T00:13:35.773Z,55.21
2016-08-09T00:14:35.803Z,55.02
2016-08-09T00:15:35.837Z,55.7
2016-08-09T00:16:36.571Z,56.09
2016-08-09T00:17:35.888Z,55.02
2016-08-09T00:18:36.628Z,55.11
2016-08-09T00:19:35.948Z,55.31
2016-08-09T00:20:35.974Z,55.31
2016-08-09T00:21:36.005Z,55.7
2016-08-09T00:22:36.035Z,55.7
2016-08-09T00:23:36.061Z,55.89
2016-08-09T00:24:36.802Z,56.37
2016-08-09T00:25:36.124Z,56.37
2016-08-09T00:26:36.152Z,56.57
2016-08-09T00:27:36.178Z,56.47
2016-08-09T00:28:36.207Z,55.79
2016-08-09T00:29:36.237Z,56.09
2016-08-09T00:30:36.974Z,55.89
2016-08-09T00:31:36.295Z,55.6
2016-08-09T00:32:37.032Z,56.28
2016-08-09T00:33:36.354Z,55.89
2016-08-09T00:34:37.091Z,56.09
2016-08-09T00:35:36.410Z,55.79
2016-08-09T00:36:36.436Z,55.99
2016-08-09T00:37:36.466Z,55.99
2016-08-09T00:38:36.511Z,55.79
2016-08-09T00:39:36.525Z,55.89
2016-08-09T00:40:36.555Z,55.7
2016-08-09T00:41:36.585Z,55.6
2016-08-09T00:42:36.627Z,56.09
2016-08-09T00:43:36.668Z,55.6
2016-08-09T00:44:36.668Z,55.79
2016-08-09T00:45:36.725Z,55.99
2016-08-09T00:46:36.735Z,55.99
2016-08-09T00:47:36.769Z,55.7
2016-08-09T00:48:36.796Z,55.02
2016-08-09T00:49:36.856Z,55.31
2016-08-09T00:50:36.844Z,55.02
2016-08-09T00:51:37.765Z,55.41
2016-08-09T00:52:36.906Z,55.21
2016-08-09T00:53:36.931Z,55.11
2016-08-09T00:54:36.960Z,55.02
2016-08-09T00:55:36.988Z,55.11
2016-08-09T00:56:37.015Z,54.99
2016-08-09T00:57:37.046Z,55.96
2016-08-09T00:58:37.074Z,55.19
2016-08-09T00:59:37.102Z,55.57
2016-08-09T01:00:37.129Z,55.31
2016-08-09T01:01:37.171Z,55.29
2016-08-09T01:02:37.244Z,55.19
2016-08-09T01:03:37.217Z,54.99
2016-08-09T01:04:37.246Z,54.99
2016-08-09T01:05:37.333Z,55.57
2016-08-09T01:06:37.304Z,55.77
2016-08-09T01:07:38.042Z,55.87
2016-08-09T01:08:37.360Z,56.18
2016-08-09T01:09:37.396Z,55.67
2016-08-09T01:10:37.437Z,55.38
2016-08-09T01:11:37.453Z,55.67
2016-08-09T01:12:37.475Z,55.77
2016-08-09T01:13:37.513Z,55.89
2016-08-09T01:14:37.536Z,56.15
2016-08-09T01:15:37.560Z,55.38
2016-08-09T01:16:37.591Z,55.47
2016-08-09T01:17:37.643Z,55.77
2016-08-09T01:18:37.653Z,55.87
2016-08-09T01:19:37.677Z,55.77
2016-08-09T01:20:37.706Z,55.77
2016-08-09T01:21:38.454Z,55.57
2016-08-09T01:22:37.767Z,55.77
2016-08-09T01:23:37.792Z,55.77
2016-08-09T01:24:37.825Z,56.25
2016-08-09T01:25:37.861Z,55.77
2016-08-09T01:26:37.877Z,56.09
2016-08-09T01:27:38.621Z,55.99
2016-08-09T01:28:37.938Z,55.96
2016-08-09T01:29:37.963Z,56.45
2016-08-09T01:30:37.994Z,56.25
2016-08-09T01:31:38.024Z,56.63
2016-08-09T01:32:38.068Z,56.05
2016-08-09T01:33:38.081Z,56.45
2016-08-09T01:34:38.110Z,56.25
2016-08-09T01:35:38.135Z,56.25
2016-08-09T01:36:38.165Z,56.45
2016-08-09T01:37:38.906Z,56.45
2016-08-09T01:38:38.223Z,56.63
2016-08-09T01:39:38.254Z,56.54
2016-08-09T01:40:38.286Z,56.73
2016-08-09T01:41:38.308Z,56.93
2016-08-09T01:42:38.339Z,57.41
2016-08-09T01:43:38.367Z,57.41
2016-08-09T01:44:38.396Z,57.31
2016-08-09T01:45:38.427Z,57.6
2016-08-09T01:46:38.454Z,57.89
2016-08-09T01:47:38.481Z,57.79
2016-08-09T01:48:38.512Z,58.09
2016-08-09T01:49:38.539Z,57.89
2016-08-09T01:50:38.569Z,57.31
2016-08-09T01:51:38.615Z,57.31
2016-08-09T01:52:38.623Z,57.21
2016-08-09T01:53:38.653Z,57.21
2016-08-09T01:54:38.681Z,57.41
2016-08-09T01:55:38.711Z,58.09
2016-08-09T01:56:39.452Z,57.6
2016-08-09T01:57:38.767Z,57.21
2016-08-09T01:58:38.797Z,57.79
2016-08-09T01:59:38.832Z,57.6
2016-08-09T02:00:38.853Z,57.89
2016-08-09T02:01:38.884Z,57.79
2016-08-09T02:02:38.911Z,57.77
2016-08-09T02:03:38.938Z,57.99
2016-08-09T02:04:38.969Z,57.87
2016-08-09T02:05:39.047Z,57.77
2016-08-09T02:06:39.039Z,57.57
2016-08-09T02:07:39.054Z,57.12
2016-08-09T02:08:39.082Z,57.21
2016-08-09T02:09:39.111Z,57.77
2016-08-09T02:10:39.846Z,57.09
2016-08-09T02:11:39.176Z,57.67
2016-08-09T02:12:39.197Z,58.06
2016-08-09T02:13:39.224Z,57.87
2016-08-09T02:14:39.254Z,57.87
2016-08-09T02:15:39.279Z,57.57
2016-08-09T02:16:39.311Z,58.15
2016-08-09T02:17:39.337Z,58.15
2016-08-09T02:18:39.368Z,57.96
2016-08-09T02:19:39.393Z,58.06
2016-08-09T02:20:39.430Z,58.06
2016-08-09T02:21:39.454Z,57.87
2016-08-09T02:22:39.487Z,57.87
2016-08-09T02:23:39.510Z,58.06
2016-08-09T02:24:39.539Z,58.06
2016-08-09T02:25:39.566Z,57.87
2016-08-09T02:26:39.592Z,57.87
2016-08-09T02:27:39.623Z,58.35
2016-08-09T02:28:39.652Z,58.06
2016-08-09T02:29:39.681Z,57.29
2016-08-09T02:30:39.708Z,57.77
2016-08-09T02:31:39.760Z,57.19
2016-08-09T02:32:39.763Z,57.19
2016-08-09T02:33:39.793Z,57.09
2016-08-09T02:34:39.821Z,57.19
2016-08-09T02:35:39.852Z,56.99
2016-08-09T02:36:39.880Z,57.19
2016-08-09T02:37:40.619Z,57.38
2016-08-09T02:38:39.935Z,58.06
2016-08-09T02:39:39.977Z,57.48
2016-08-09T02:40:39.991Z,58.06
2016-08-09T02:41:40.021Z,57.77
2016-08-09T02:42:40.047Z,58.35
2016-08-09T02:43:40.080Z,57.77
2016-08-09T02:44:40.104Z,57.77
2016-08-09T02:45:40.135Z,57.67
2016-08-09T02:46:40.181Z,58.15
2016-08-09T02:47:40.192Z,57.77
2016-08-09T02:48:55.111Z,57.87
2016-08-09T02:49:40.248Z,57.57
2016-08-09T02:50:40.273Z,57.67
2016-08-09T02:51:40.305Z,58.06
2016-08-09T02:52:40.337Z,57.57
2016-08-09T02:53:40.359Z,57.77
2016-08-09T02:54:40.400Z,57.96
2016-08-09T02:55:40.424Z,58.35
2016-08-09T02:56:40.447Z,57.67
2016-08-09T02:57:40.473Z,57.77
2016-08-09T02:58:40.502Z,57.77
2016-08-09T02:59:40.531Z,57.57
2016-08-09T03:00:40.561Z,57.67
2016-08-09T03:01:40.588Z,57.06
2016-08-09T03:02:40.616Z,56.96
2016-08-09T03:03:40.653Z,56.68
2016-08-09T03:04:40.670Z,56.29
2016-08-09T03:05:41.409Z,56.96
2016-08-09T03:06:40.727Z,56.68
2016-08-09T03:07:40.758Z,56.48
2016-08-09T03:08:40.783Z,56.96
2016-08-09T03:09:40.812Z,56.68
2016-08-09T03:10:41.557Z,56.29
2016-08-09T03:11:40.868Z,56.68
2016-08-09T03:12:40.899Z,56.2
2016-08-09T03:13:40.927Z,55.71
2016-08-09T03:14:40.957Z,56
2016-08-09T03:15:40.996Z,56.29
2016-08-09T03:16:41.723Z,55.81
2016-08-09T03:17:41.043Z,55.81
2016-08-09T03:18:41.074Z,55.81
2016-08-09T03:19:41.101Z,55.81
2016-08-09T03:20:41.126Z,55.9
2016-08-09T03:21:41.151Z,55.9
2016-08-09T03:22:41.177Z,56.29
2016-08-09T03:23:41.209Z,56.48
2016-08-09T03:24:41.236Z,55.33
2016-08-09T03:25:41.265Z,56
2016-08-09T03:26:41.295Z,55.71
2016-08-09T03:27:42.031Z,55.62
2016-08-09T03:28:41.372Z,55.52
2016-08-09T03:29:41.375Z,55.71
2016-08-09T03:30:41.402Z,56.2
2016-08-09T03:31:41.435Z,56.1
2016-08-09T03:32:41.462Z,56.48
2016-08-09T03:33:41.486Z,56.48
2016-08-09T03:34:42.227Z,56.48
2016-08-09T03:35:41.545Z,56.29
2016-08-09T03:36:41.588Z,56.26
2016-08-09T03:37:41.600Z,57.16
2016-08-09T03:38:41.633Z,57.54
2016-08-09T03:39:41.657Z,58.1
2016-08-09T03:40:41.686Z,58.97
2016-08-09T03:41:41.712Z,58.97
2016-08-09T03:42:41.741Z,59.25
2016-08-09T03:43:41.794Z,60.8
2016-08-09T03:44:41.805Z,61.47
2016-08-09T03:45:41.823Z,60.99
2016-08-09T03:46:41.853Z,62.15
2016-08-09T03:48:41.909Z,62.15
2016-08-09T03:49:41.937Z,62.44
2016-08-09T03:50:41.967Z,62.44
2016-08-09T03:51:42.010Z,63.12
2016-08-09T03:52:42.023Z,62.82
2016-08-09T03:53:42.049Z,62.92
2016-08-09T03:54:42.078Z,62.63
2016-08-09T03:55:42.109Z,62.99
2016-08-09T03:56:42.134Z,63.47
2016-08-09T03:57:42.164Z,64.05
2016-08-09T03:58:42.190Z,65.4
2016-08-09T03:59:42.226Z,65.5
2016-08-09T04:00:42.252Z,66.66
2016-08-09T04:01:42.981Z,66.75
2016-08-09T04:02:42.301Z,67.71
2016-08-09T04:03:42.326Z,67.78
2016-08-09T04:04:42.357Z,68.16
2016-08-09T04:05:42.382Z,70.19
2016-08-09T04:06:42.413Z,70.19
2016-08-09T04:07:42.443Z,69.42
2016-08-09T04:08:42.469Z,70.28
2016-08-09T04:09:42.493Z,71.22
2016-08-09T04:10:42.521Z,71.12
2016-08-09T04:11:42.549Z,72.66
2016-08-09T04:12:42.577Z,73.75
2016-08-09T04:13:42.602Z,75.16
2016-08-09T04:14:42.702Z,75.07
2016-08-09T04:15:42.664Z,74.88
2016-08-09T04:16:42.687Z,75.45
2016-08-09T04:17:42.733Z,74.4
2016-08-09T04:18:42.749Z,75.16
2016-08-09T04:19:42.767Z,75.45
2016-08-09T04:20:43.513Z,75.74
2016-08-09T04:21:42.821Z,77.09
2016-08-09T04:22:42.849Z,76.71
2016-08-09T04:23:42.880Z,76.51
2016-08-09T04:24:42.907Z,77.28
2016-08-09T04:25:42.931Z,76.67
2016-08-09T04:26:42.956Z,76.32
2016-08-09T04:27:42.986Z,77.25
2016-08-09T04:28:43.010Z,78.5
2016-08-09T04:29:43.034Z,77.25
2016-08-09T04:30:43.065Z,76.48
2016-08-09T04:31:43.100Z,74.84
2016-08-09T04:33:43.143Z,76.09
2016-08-09T04:34:43.170Z,76.96
2016-08-09T04:35:43.198Z,77.53
2016-08-09T04:36:43.225Z,77.73
2016-08-09T04:37:43.249Z,77.63
2016-08-09T04:38:43.277Z,77.15
2016-08-09T04:39:43.318Z,77.83
2016-08-09T04:40:43.332Z,78.98
2016-08-09T04:41:43.371Z,78.4
2016-08-09T04:42:43.385Z,79.33
2016-08-09T04:43:43.411Z,76.92
2016-08-09T04:44:43.439Z,77.5
2016-08-09T04:45:43.468Z,79.03
2016-08-09T04:46:43.491Z,79.03
2016-08-09T04:48:43.556Z,78.27
2016-08-09T04:49:43.578Z,78.85
2016-08-09T04:50:43.601Z,78.46
2016-08-09T04:51:44.335Z,80.48
2016-08-09T04:52:43.655Z,82.12
2016-08-09T04:53:43.687Z,81.83
2016-08-09T04:54:43.707Z,81.3
2016-08-09T04:55:43.746Z,81.7
2016-08-09T04:56:43.760Z,81.21
2016-08-09T04:57:43.784Z,81.6
2016-08-09T04:58:43.812Z,81.4
2016-08-09T04:59:43.840Z,80.73
2016-08-09T05:00:43.871Z,81.7
2016-08-09T05:01:43.906Z,81.7
2016-08-09T05:02:43.917Z,82.46
2016-08-09T05:03:44.673Z,81.5
2016-08-09T05:04:43.973Z,81.7
2016-08-09T05:05:44.706Z,81.21
2016-08-09T05:06:44.022Z,80.54
2016-08-09T05:07:44.047Z,78.9
2016-08-09T05:08:44.071Z,78.81
2016-08-09T05:09:44.112Z,80.06
2016-08-09T05:10:44.125Z,79.38
2016-08-09T05:11:44.154Z,79.96
2016-08-09T05:12:44.191Z,79.96
2016-08-09T05:13:44.204Z,80.15
2016-08-09T05:14:44.232Z,81.12
2016-08-09T05:15:44.255Z,79.96
2016-08-09T05:16:44.295Z,79.67
2016-08-09T05:17:44.307Z,80.06
2016-08-09T05:18:44.338Z,79.96
2016-08-09T05:19:44.360Z,80.79
2016-08-09T05:20:44.407Z,80.63
2016-08-09T05:21:44.413Z,80.44
2016-08-09T05:22:44.437Z,80.21
2016-08-09T05:23:44.463Z,80.11
2016-08-09T05:24:44.489Z,79.82
2016-08-09T05:25:44.517Z,79.44
2016-08-09T05:26:44.541Z,79.92
2016-08-09T05:27:45.279Z,81.65
2016-08-09T05:28:44.593Z,81.27
2016-08-09T05:29:44.633Z,78.71
2016-08-09T05:30:44.652Z,77.42
2016-08-09T05:31:44.672Z,78.19
2016-08-09T05:32:44.697Z,78.58
2016-08-09T05:33:44.723Z,78.86
2016-08-09T05:34:44.749Z,80.79
2016-08-09T05:35:44.777Z,79.92
2016-08-09T05:36:44.803Z,80.21
2016-08-09T05:37:44.829Z,81.07
2016-08-09T05:38:44.860Z,81.27
2016-08-09T05:39:44.878Z,80.02
2016-08-09T05:40:44.904Z,80.6
2016-08-09T05:41:44.936Z,80.4
2016-08-09T05:42:44.956Z,80.11
2016-08-09T05:43:44.989Z,80.69
2016-08-09T05:44:45.008Z,79.92
2016-08-09T05:45:45.033Z,78.67
2016-08-09T05:46:45.060Z,79.35
2016-08-09T05:47:45.086Z,79.53
2016-08-09T05:48:45.112Z,79.92
2016-08-09T05:49:45.844Z,80.11
2016-08-09T05:50:45.169Z,79.73
2016-08-09T05:51:45.197Z,80.79
2016-08-09T05:52:45.213Z,80.88
2016-08-09T05:53:45.241Z,80.02
2016-08-09T05:54:45.268Z,78.09
2016-08-09T05:55:45.290Z,78.19
2016-08-09T05:56:45.318Z,79.35
2016-08-09T05:57:45.342Z,80.02
2016-08-09T05:58:45.386Z,80.98
2016-08-09T05:59:46.105Z,81.37
2016-08-09T06:00:46.131Z,80.88
2016-08-09T06:01:45.448Z,79.63
2016-08-09T06:02:45.471Z,80.6
2016-08-09T06:03:45.503Z,80.4
2016-08-09T06:04:45.524Z,82.42
2016-08-09T06:05:45.550Z,82.61
2016-08-09T06:06:45.610Z,82.42
2016-08-09T06:07:45.616Z,80.6
2016-08-09T06:08:45.628Z,81.56
2016-08-09T06:09:45.654Z,81.75
2016-08-09T06:10:45.681Z,82.32
2016-08-09T06:11:45.714Z,82.52
2016-08-09T06:12:45.731Z,81.46
2016-08-09T06:13:45.757Z,81.56
2016-08-09T06:14:45.803Z,83.19
2016-08-09T06:15:45.811Z,84.25
2016-08-09T06:16:45.835Z,82.81
2016-08-09T06:17:45.862Z,81.17
2016-08-09T06:18:45.885Z,82.04
2016-08-09T06:19:45.911Z,82.23
2016-08-09T06:20:45.939Z,80.6
2016-08-09T06:21:46.689Z,80.79
2016-08-09T06:22:46.705Z,81.27
2016-08-09T06:23:46.014Z,81.37
2016-08-09T06:24:46.042Z,80.88
2016-08-09T06:25:46.069Z,80.98
2016-08-09T06:26:46.890Z,80.65
2016-08-09T06:27:46.831Z,79.79
2016-08-09T06:28:46.147Z,80.55
2016-08-09T06:29:46.170Z,82.57
2016-08-09T06:30:46.194Z,83.34
2016-08-09T06:31:46.224Z,81.81
2016-08-09T06:32:46.246Z,81.42
2016-08-09T06:33:46.272Z,80.84
2016-08-09T06:34:46.296Z,80.65
2016-08-09T06:35:46.325Z,80.65
2016-08-09T06:36:46.355Z,81.13
2016-08-09T06:37:46.381Z,82.38
2016-08-09T06:38:46.413Z,82.48
2016-08-09T06:39:46.439Z,81.23
2016-08-09T06:40:46.454Z,81.71
2016-08-09T06:41:46.479Z,80.65
2016-08-09T06:42:46.504Z,82.29
2016-08-09T06:43:46.529Z,80.84
2016-08-09T06:44:46.555Z,80.75
2016-08-09T06:45:46.577Z,81.13
2016-08-09T06:46:46.612Z,81.04
2016-08-09T06:47:46.641Z,81.81
2016-08-09T06:48:47.368Z,81.04
2016-08-09T06:52:46.763Z,81.61
2016-08-09T06:53:46.785Z,82.57
2016-08-09T06:54:46.815Z,82.96
2016-08-09T06:55:46.858Z,82.29
2016-08-09T06:56:46.860Z,82.42
2016-08-09T06:57:46.894Z,82.14
2016-08-09T06:58:46.919Z,80.84
2016-08-09T06:59:46.937Z,80.84
2016-08-09T07:00:47.684Z,81.27
2016-08-09T07:01:46.988Z,82.19
2016-08-09T07:02:47.012Z,80.88
2016-08-09T07:03:47.037Z,81.04
2016-08-09T07:04:47.064Z,80.02
2016-08-09T07:05:47.090Z,80.46
2016-08-09T07:06:47.113Z,81.42
2016-08-09T07:07:47.852Z,80.94
2016-08-09T07:08:47.897Z,80.55
2016-08-09T07:09:47.196Z,79.98
2016-08-09T07:10:47.217Z,78.73
2016-08-09T07:13:47.292Z,78.63
2016-08-09T07:14:47.318Z,79.11
2016-08-09T07:15:47.342Z,79.88
2016-08-09T07:16:47.370Z,80.55
2016-08-09T07:17:47.402Z,81.13
2016-08-09T07:18:47.423Z,81.52
2016-08-09T07:19:47.447Z,81.42
2016-08-09T07:20:47.477Z,81.42
2016-08-09T07:21:47.499Z,81.81
2016-08-09T07:22:47.521Z,81.23
2016-08-09T07:23:48.258Z,81.42
2016-08-09T07:24:47.572Z,81.42
2016-08-09T07:25:47.620Z,83.06
2016-08-09T07:26:47.632Z,82.86
2016-08-09T07:27:48.359Z,83.25
2016-08-09T07:28:47.672Z,83.15
2016-08-09T07:29:47.701Z,84.21
2016-08-09T07:30:47.725Z,84.3
2016-08-09T07:31:47.753Z,85.07
2016-08-09T07:32:47.777Z,84.63
2016-08-09T07:33:47.802Z,83.77
2016-08-09T07:34:48.539Z,84.16
2016-08-09T07:35:47.853Z,83.96
2016-08-09T07:36:47.882Z,85.21
2016-08-09T07:37:47.905Z,85.21
2016-08-09T07:38:48.637Z,84.83
2016-08-09T07:39:47.957Z,83.77
2016-08-09T07:40:47.981Z,84.16
2016-08-09T07:41:48.008Z,83.96
2016-08-09T07:42:48.033Z,83.67
2016-08-09T07:43:48.769Z,81.37
2016-08-09T07:44:48.085Z,81.07
2016-08-09T07:45:48.114Z,81.56
2016-08-09T07:46:48.136Z,80.69
2016-08-09T07:47:48.162Z,78.67
2016-08-09T07:48:48.922Z,80.02
2016-08-09T07:49:48.216Z,80.11
2016-08-09T07:50:48.958Z,80.02
2016-08-09T07:51:48.265Z,79.73
2016-08-09T07:52:48.292Z,79.86
2016-08-09T07:53:48.318Z,79.96
2016-08-09T07:54:48.344Z,79.58
2016-08-09T07:55:48.379Z,77.65
2016-08-09T07:56:48.399Z,78.42
2016-08-09T07:57:48.428Z,78.42
2016-08-09T07:58:48.455Z,78.61
2016-08-09T07:59:48.477Z,77.26
2016-08-09T08:00:48.501Z,78.61
2016-08-09T08:01:48.534Z,79.19
2016-08-09T08:02:49.261Z,78.61
2016-08-09T08:03:48.584Z,78.13
2016-08-09T08:04:48.605Z,77.17
2016-08-09T08:05:48.648Z,77.17
2016-08-09T08:06:48.659Z,77.26
2016-08-09T08:07:48.681Z,77.26
2016-08-09T08:08:48.713Z,77.36
2016-08-09T08:09:48.742Z,77.26
2016-08-09T08:10:48.760Z,78.52
2016-08-09T08:11:48.788Z,78.33
2016-08-09T08:12:48.813Z,77.46
2016-08-09T08:13:48.839Z,77.65
2016-08-09T08:14:48.876Z,77.36
2016-08-09T08:15:48.892Z,77.46
2016-08-09T08:16:49.626Z,77.94
2016-08-09T08:17:48.943Z,77.65
2016-08-09T08:18:49.678Z,77.65
2016-08-09T08:19:48.993Z,78.42
2016-08-09T08:20:49.019Z,77.65
2016-08-09T08:21:49.239Z,76.98
2016-08-09T08:22:49.093Z,76.5
2016-08-09T08:23:49.101Z,76.4
2016-08-09T08:24:49.134Z,76.01
2016-08-09T08:25:49.155Z,76.5
2016-08-09T08:26:49.178Z,76.59
2016-08-09T08:27:49.204Z,76.78
2016-08-09T08:28:49.230Z,77.17
2016-08-09T08:29:49.271Z,77.26
2016-08-09T08:30:49.990Z,77.08
2016-08-09T08:31:49.312Z,77.36
2016-08-09T08:32:49.334Z,76.88
2016-08-09T08:33:49.361Z,76.98
2016-08-09T08:34:49.387Z,77.08
2016-08-09T08:35:49.414Z,77.17
2016-08-09T08:36:49.440Z,77.46
2016-08-09T08:37:49.466Z,77.36
2016-08-09T08:38:49.492Z,77.36
2016-08-09T08:39:49.521Z,76.31
2016-08-09T08:40:49.545Z,76.5
2016-08-09T08:41:49.569Z,76.98
2016-08-09T08:42:49.593Z,76.98
2016-08-09T08:43:49.624Z,76.69
2016-08-09T08:44:49.652Z,76.98
2016-08-09T08:45:49.689Z,76.25
2016-08-09T08:46:50.410Z,76.88
2016-08-09T08:47:49.727Z,76.88
2016-08-09T08:48:49.753Z,76.73
2016-08-09T08:49:49.779Z,75.76
2016-08-09T08:50:49.806Z,76.92
2016-08-09T08:51:49.830Z,76.63
2016-08-09T08:52:49.859Z,75.28
2016-08-09T08:53:49.887Z,76.06
2016-08-09T08:54:49.913Z,76.06
2016-08-09T08:55:49.935Z,75.57
2016-08-09T08:56:49.962Z,75.57
2016-08-09T08:57:49.993Z,75.48
2016-08-09T08:58:50.015Z,75.96
2016-08-09T08:59:50.040Z,75.67
2016-08-09T09:00:50.072Z,76.53
2016-08-09T09:01:50.106Z,76.73
2016-08-09T09:02:50.117Z,76.34
2016-08-09T09:04:50.174Z,74.32
2016-08-09T09:05:50.199Z,74.32
2016-08-09T09:06:50.444Z,74.9
2016-08-09T09:07:50.250Z,75.19
2016-08-09T09:08:50.287Z,74.71
2016-08-09T09:09:50.306Z,74.61
2016-08-09T09:10:50.328Z,75.09
2016-08-09T09:11:50.356Z,75.38
2016-08-09T09:12:50.382Z,75.09
2016-08-09T09:13:50.408Z,74.41
2016-08-09T09:14:50.438Z,74.22
2016-08-09T09:15:50.463Z,74.13
2016-08-09T09:16:50.516Z,74.41
2016-08-09T09:17:50.518Z,74.51
2016-08-09T09:19:50.568Z,74.41
2016-08-09T09:20:50.592Z,75.28
2016-08-09T09:21:50.620Z,75.67
2016-08-09T09:22:50.651Z,75.67
2016-08-09T09:23:50.672Z,75.48
2016-08-09T09:24:50.700Z,75.38
2016-08-09T09:25:51.433Z,74.8
2016-08-09T09:26:50.751Z,74.32
2016-08-09T09:27:50.777Z,73.65
2016-08-09T09:28:50.806Z,73.36
2016-08-09T09:29:50.830Z,74.22
2016-08-09T09:30:51.566Z,73.74
2016-08-09T09:31:50.884Z,74.41
2016-08-09T09:32:50.909Z,74.32
2016-08-09T09:34:50.968Z,73.84
2016-08-09T09:35:50.986Z,74.13
2016-08-09T09:36:51.012Z,74.22
2016-08-09T09:37:51.041Z,73.94
2016-08-09T09:38:51.068Z,73.36
2016-08-09T09:39:51.091Z,72.11
2016-08-09T09:40:51.827Z,72.01
2016-08-09T09:41:51.858Z,73.07
2016-08-09T09:42:51.173Z,73.16
2016-08-09T09:43:51.196Z,73.16
2016-08-09T09:44:51.225Z,72.3
2016-08-09T09:45:51.251Z,72.88
2016-08-09T09:46:51.277Z,72.88
2016-08-09T09:47:51.302Z,72.01
2016-08-09T09:48:52.043Z,71.91
2016-08-09T09:49:51.352Z,72.88
2016-08-09T09:50:52.087Z,72.2
2016-08-09T09:51:51.410Z,71.81
2016-08-09T09:52:51.432Z,72.39
2016-08-09T09:53:51.457Z,71.97
2016-08-09T09:54:51.492Z,72.2
2016-08-09T09:55:51.510Z,72.59
2016-08-09T09:56:51.542Z,72.39
2016-08-09T09:57:51.620Z,72.11
2016-08-09T09:58:51.592Z,72.11
2016-08-09T09:59:51.624Z,72.2
2016-08-09T10:00:52.355Z,71.72
2016-08-09T10:01:52.378Z,72.39
2016-08-09T10:02:51.696Z,72.39
2016-08-09T10:03:51.722Z,71.69
2016-08-09T10:04:51.746Z,71.2
2016-08-09T10:05:52.483Z,71.69
2016-08-09T10:06:51.802Z,72.45
2016-08-09T10:07:51.826Z,72.17
2016-08-09T10:08:51.852Z,71.88
2016-08-09T10:09:51.876Z,72.26
2016-08-09T10:10:52.615Z,72.17
2016-08-09T10:11:51.930Z,73.13
2016-08-09T10:12:51.965Z,73.32
2016-08-09T10:13:51.983Z,73.61
2016-08-09T10:14:52.011Z,72.94
2016-08-09T10:15:52.035Z,72.84
2016-08-09T10:16:52.061Z,72.94
2016-08-09T10:17:52.086Z,73.71
2016-08-09T10:18:52.113Z,73.42
2016-08-09T10:19:52.138Z,73.22
2016-08-09T10:20:52.181Z,72.07
2016-08-09T10:21:52.192Z,72.26
2016-08-09T10:22:52.218Z,73.03
2016-08-09T10:23:52.950Z,72.94
2016-08-09T10:24:52.269Z,73.51
2016-08-09T10:25:52.295Z,73.42
2016-08-09T10:26:52.322Z,72.94
2016-08-09T10:27:52.346Z,72.36
2016-08-09T10:28:52.375Z,73.13
2016-08-09T10:29:52.410Z,72.94
2016-08-09T10:30:52.426Z,72.84
2016-08-09T10:31:52.453Z,73.71
2016-08-09T10:32:52.478Z,73.71
2016-08-09T10:33:52.505Z,73.32
2016-08-09T10:34:52.530Z,73.42
2016-08-09T10:35:52.558Z,73.71
2016-08-09T10:36:52.585Z,73.8
2016-08-09T10:37:52.626Z,73.9
2016-08-09T10:38:52.633Z,73.61
2016-08-09T10:39:52.663Z,73.22
2016-08-09T10:40:52.687Z,72.84
2016-08-09T10:41:52.714Z,73.13
2016-08-09T10:42:52.742Z,72.55
2016-08-09T10:43:53.473Z,72.94
2016-08-09T10:44:52.793Z,73.71
2016-08-09T10:45:52.818Z,73.51
2016-08-09T10:46:52.845Z,73.22
2016-08-09T10:47:52.871Z,73.51
2016-08-09T10:48:52.899Z,73.61
2016-08-09T10:49:53.632Z,73.74
2016-08-09T10:50:52.948Z,73.74
2016-08-09T10:51:52.974Z,72.36
2016-08-09T10:52:53.712Z,72.17
2016-08-09T10:53:53.031Z,73.13
2016-08-09T10:54:53.053Z,72.94
2016-08-09T10:55:53.084Z,73.22
2016-08-09T10:56:53.108Z,73.42
2016-08-09T10:57:53.138Z,73.99
2016-08-09T10:58:53.161Z,73.61
2016-08-09T10:59:53.183Z,73.42
2016-08-09T11:00:53.921Z,72.78
2016-08-09T11:01:53.245Z,73.16
2016-08-09T11:02:53.267Z,73.55
2016-08-09T11:03:53.288Z,73.55
2016-08-09T11:04:53.317Z,73.55
2016-08-09T11:05:53.343Z,72.97
2016-08-09T11:06:53.370Z,73.36
2016-08-09T11:07:53.397Z,73.26
2016-08-09T11:08:53.422Z,72.49
2016-08-09T11:09:53.452Z,72.01
2016-08-09T11:10:53.477Z,71.72
2016-08-09T11:11:53.500Z,71.91
2016-08-09T11:12:53.528Z,71.62
2016-08-09T11:13:53.556Z,72.11
2016-08-09T11:14:53.581Z,72.3
2016-08-09T11:15:53.605Z,72.59
2016-08-09T11:16:55.051Z,72.39
2016-08-09T11:17:53.674Z,73.36
2016-08-09T11:18:53.690Z,72.63
2016-08-09T11:19:53.715Z,71.81
2016-08-09T11:20:53.738Z,72.11
2016-08-09T11:21:53.765Z,72.63
2016-08-09T11:22:53.793Z,72.68
2016-08-09T11:23:53.826Z,71.72
2016-08-09T11:24:54.073Z,71.91
2016-08-09T11:25:53.874Z,72.49
2016-08-09T11:26:53.898Z,72.3
2016-08-09T11:27:53.925Z,72.11
2016-08-09T11:28:54.674Z,72.14
2016-08-09T11:29:53.977Z,72.91
2016-08-09T11:30:54.002Z,73.2
2016-08-09T11:31:54.040Z,72.53
2016-08-09T11:32:54.057Z,72.43
2016-08-09T11:33:54.083Z,71.62
2016-08-09T11:34:54.110Z,72.39
2016-08-09T11:35:54.136Z,72.43
2016-08-09T11:36:54.162Z,73.01
2016-08-09T11:37:54.190Z,73.36
2016-08-09T11:38:54.924Z,73.26
2016-08-09T11:39:54.262Z,73.2
2016-08-09T11:40:54.269Z,73.78
2016-08-09T11:41:54.294Z,73.78
2016-08-09T11:42:54.323Z,73.58
2016-08-09T11:43:54.348Z,73.97
2016-08-09T11:44:54.373Z,74.26
2016-08-09T11:45:54.402Z,74.36
2016-08-09T11:46:54.429Z,73.58
2016-08-09T11:47:54.476Z,73.1
2016-08-09T11:48:54.487Z,73.01
2016-08-09T11:49:54.506Z,73.3
2016-08-09T11:50:55.241Z,72.43
2016-08-09T11:51:54.561Z,71.18
2016-08-09T11:52:54.597Z,71.28
2016-08-09T11:53:54.614Z,71.76
2016-08-09T11:54:54.638Z,72.05
2016-08-09T11:55:54.667Z,72.39
2016-08-09T11:56:54.702Z,72.53
2016-08-09T11:57:54.719Z,70.47
2016-08-09T11:58:54.747Z,71.72
2016-08-09T11:59:54.772Z,70.37
2016-08-09T12:00:54.801Z,71.14
2016-08-09T12:01:54.825Z,71.53
2016-08-09T12:02:54.852Z,71.43
2016-08-09T12:03:54.882Z,71.81
2016-08-09T12:04:54.919Z,72.88
2016-08-09T12:05:54.934Z,72.68
2016-08-09T12:06:54.960Z,73.07
2016-08-09T12:07:54.986Z,73.26
2016-08-09T12:08:55.013Z,73.07
2016-08-09T12:09:55.040Z,73.55
2016-08-09T12:10:55.067Z,72.59
2016-08-09T12:11:55.097Z,73.2
2016-08-09T12:12:55.137Z,73.68
2016-08-09T12:13:55.147Z,73.68
2016-08-09T12:14:55.173Z,71.76
2016-08-09T12:15:55.201Z,72.14
2016-08-09T12:16:55.227Z,72.43
2016-08-09T12:17:55.964Z,72.63
2016-08-09T12:18:55.279Z,73.3
2016-08-09T12:19:55.309Z,72.33
2016-08-09T12:20:55.356Z,72.75
2016-08-09T12:21:56.071Z,72.05
2016-08-09T12:22:55.385Z,71.79
2016-08-09T12:23:55.427Z,71.89
2016-08-09T12:24:55.444Z,71.79
2016-08-09T12:25:55.467Z,70.92
2016-08-09T12:26:55.498Z,71.31
2016-08-09T12:27:55.551Z,70.73
2016-08-09T12:28:55.570Z,70.73
2016-08-09T12:29:55.577Z,69.09
2016-08-09T12:30:55.627Z,67.94
2016-08-09T12:31:55.628Z,68.32
2016-08-09T12:32:56.371Z,68.32
2016-08-09T12:33:55.686Z,67.65
2016-08-09T12:34:56.427Z,68.13
2016-08-09T12:35:55.738Z,66.39
2016-08-09T12:36:55.765Z,66.3
2016-08-09T12:37:55.791Z,67.55
2016-08-09T12:38:55.818Z,68.13
2016-08-09T12:39:55.844Z,67.16
2016-08-09T12:40:55.874Z,67.07
2016-08-09T12:41:55.902Z,67.94
2016-08-09T12:42:56.642Z,65.53
2016-08-09T12:43:55.956Z,67.46
2016-08-09T12:44:56.004Z,67.65
2016-08-09T12:45:56.011Z,67.74
2016-08-09T12:46:56.046Z,68.32
2016-08-09T12:47:56.776Z,66.69
2016-08-09T12:48:56.099Z,68.32
2016-08-09T12:49:56.118Z,68.32
2016-08-09T12:50:56.145Z,67.55
2016-08-09T12:51:56.174Z,67.36
2016-08-09T12:52:56.220Z,67.16
2016-08-09T12:53:56.227Z,65.91
2016-08-09T12:54:56.260Z,66.01
2016-08-09T12:55:56.280Z,65.91
2016-08-09T12:56:56.306Z,65.81
2016-08-09T12:57:56.340Z,66.69
2016-08-09T12:58:56.362Z,66.78
2016-08-09T12:59:56.391Z,66.97
2016-08-09T13:00:56.439Z,68.61
2016-08-09T13:01:56.446Z,67.36
2016-08-09T13:02:56.477Z,67.36
2016-08-09T13:03:56.499Z,67.65
2016-08-09T13:04:57.238Z,68.32
2016-08-09T13:05:56.552Z,67.46